createdAt,value
2018-09-10T00:00:28.753Z,19.46
2018-09-10T00:01:38.841Z,19.56
2018-09-10T00:02:49.172Z,19.43
2018-09-10T00:03:59.249Z,19.45
2018-09-10T00:05:09.341Z,19.46
2018-09-10T00:06:19.424Z,19.49
2018-09-10T00:07:28.970Z,19.4
2018-09-10T00:08:39.106Z,19.32
2018-09-10T00:09:48.938Z,19.43
2018-09-10T00:10:58.750Z,19.35
2018-09-10T00:12:08.838Z,19.31
2018-09-10T00:13:18.898Z,19.4
2018-09-10T00:14:28.769Z,19.32
2018-09-10T00:15:38.601Z,19.35
2018-09-10T00:16:48.439Z,19.25
2018-09-10T00:17:58.513Z,19.23
2018-09-10T00:19:08.643Z,19.27
2018-09-10T00:20:18.743Z,19.25
2018-09-10T00:21:28.824Z,19.25
2018-09-10T00:22:38.912Z,19.3
2018-09-10T00:23:48.985Z,19.2
2018-09-10T00:24:59.058Z,19.19
2018-09-10T00:26:09.120Z,19.2
2018-09-10T00:27:19.186Z,19.23
2018-09-10T00:28:29.267Z,19.25
2018-09-10T00:29:39.348Z,19.25
2018-09-10T00:30:49.409Z,19.23
2018-09-10T00:31:59.491Z,19.25
2018-09-10T00:33:09.570Z,19.27
2018-09-10T00:34:19.881Z,19.2
2018-09-10T00:35:29.686Z,19.23
2018-09-10T00:36:39.505Z,19.24
2018-09-10T00:37:49.323Z,19.2
2018-09-10T00:38:59.386Z,19.23
2018-09-10T00:40:09.464Z,19.24
2018-09-10T00:41:19.520Z,19.19
2018-09-10T00:42:29.614Z,19.16
2018-09-10T00:43:39.743Z,19.09
2018-09-10T00:44:49.570Z,19.09
2018-09-10T00:45:59.684Z,19.06
2018-09-10T00:47:09.778Z,19.09
2018-09-10T00:48:19.902Z,18.97
2018-09-10T00:49:30.140Z,19.1
2018-09-10T00:50:40.228Z,18.97
2018-09-10T00:51:50.287Z,18.97
2018-09-10T00:53:00.821Z,18.99
2018-09-10T00:54:10.648Z,18.97
2018-09-10T00:55:20.766Z,18.93
2018-09-10T00:56:30.851Z,18.97
2018-09-10T00:57:40.928Z,18.9
2018-09-10T00:58:50.751Z,18.84
2018-09-10T01:00:00.073Z,18.78
2018-09-10T01:01:10.148Z,18.84
2018-09-10T01:02:19.994Z,18.76
2018-09-10T01:03:30.096Z,18.93
2018-09-10T01:04:40.170Z,18.87
2018-09-10T01:05:50.258Z,18.84
2018-09-10T01:07:00.421Z,18.86
2018-09-10T01:08:10.246Z,18.78
2018-09-10T01:09:20.367Z,18.84
2018-09-10T01:10:30.432Z,18.79
2018-09-10T01:11:40.236Z,18.78
2018-09-10T01:12:50.323Z,18.76
2018-09-10T01:14:00.648Z,18.78
2018-09-10T01:15:10.473Z,18.75
2018-09-10T01:16:20.536Z,18.78
2018-09-10T01:17:30.611Z,18.69
2018-09-10T01:18:40.664Z,18.76
2018-09-10T01:19:50.742Z,18.68
2018-09-10T01:21:00.837Z,18.74
2018-09-10T01:22:10.913Z,18.71
2018-09-10T01:23:20.736Z,18.68
2018-09-10T01:24:30.960Z,18.6
2018-09-10T01:25:41.037Z,18.59
2018-09-10T01:26:51.111Z,18.66
2018-09-10T01:28:01.185Z,18.6
2018-09-10T01:29:11.291Z,18.56
2018-09-10T01:30:21.159Z,18.59
2018-09-10T01:31:31.472Z,18.54
2018-09-10T01:32:41.287Z,18.63
2018-09-10T01:33:51.355Z,18.63
2018-09-10T01:35:01.414Z,18.57
2018-09-10T01:36:11.491Z,18.54
2018-09-10T01:37:21.586Z,18.47
2018-09-10T01:38:31.655Z,18.5
2018-09-10T01:39:41.463Z,18.51
2018-09-10T01:40:51.542Z,18.5
2018-09-10T01:42:01.713Z,18.44
2018-09-10T01:43:11.797Z,18.44
2018-09-10T01:44:21.882Z,18.41
2018-09-10T01:45:31.950Z,18.42
2018-09-10T01:46:41.767Z,18.44
2018-09-10T01:47:51.899Z,18.42
2018-09-10T01:49:01.980Z,18.45
2018-09-10T01:50:11.797Z,18.39
2018-09-10T01:51:21.858Z,18.42
2018-09-10T01:52:31.666Z,18.39
2018-09-10T01:53:41.747Z,18.44
2018-09-10T01:54:51.816Z,18.44
2018-09-10T01:56:01.889Z,18.47
2018-09-10T01:57:11.722Z,18.5
2018-09-10T01:58:21.809Z,18.51
2018-09-10T01:59:31.634Z,18.53
2018-09-10T02:00:41.722Z,18.5
2018-09-10T02:01:51.793Z,18.5
2018-09-10T02:03:01.597Z,18.54
2018-09-10T02:04:11.686Z,18.47
2018-09-10T02:05:21.510Z,18.45
2018-09-10T02:06:31.055Z,18.38
2018-09-10T02:07:41.153Z,18.49
2018-09-10T02:08:51.227Z,18.39
2018-09-10T02:10:00.770Z,18.38
2018-09-10T02:11:10.997Z,18.39
2018-09-10T02:12:20.554Z,18.39
2018-09-10T02:13:30.361Z,18.39
2018-09-10T02:14:40.428Z,18.34
2018-09-10T02:15:50.233Z,18.36
2018-09-10T02:17:00.152Z,18.35
2018-09-10T02:18:10.383Z,18.29
2018-09-10T02:19:20.181Z,18.31
2018-09-10T02:20:30.318Z,18.34
2018-09-10T02:21:40.284Z,18.32
2018-09-10T02:22:50.100Z,18.23
2018-09-10T02:23:59.911Z,18.16
2018-09-10T02:25:09.983Z,18.21
2018-09-10T02:26:20.067Z,18.19
2018-09-10T02:27:30.451Z,18.27
2018-09-10T02:28:40.872Z,18.21
2018-09-10T02:29:50.953Z,18.23
2018-09-10T02:31:01.055Z,18.23
2018-09-10T02:32:11.140Z,18.14
2018-09-10T02:33:21.222Z,18.2
2018-09-10T02:34:31.046Z,18.14
2018-09-10T02:35:41.121Z,18.17
2018-09-10T02:36:51.207Z,18.16
2018-09-10T02:38:01.289Z,18.14
2018-09-10T02:39:11.393Z,18.1
2018-09-10T02:40:21.183Z,18.11
2018-09-10T02:41:31.287Z,18.14
2018-09-10T02:42:41.361Z,18.08
2018-09-10T02:43:51.216Z,18.05
2018-09-10T02:45:01.035Z,18.05
2018-09-10T02:46:11.166Z,18.08
2018-09-10T02:47:20.976Z,18.05
2018-09-10T02:48:31.065Z,18.03
2018-09-10T02:49:41.159Z,18.01
2018-09-10T02:50:51.226Z,18.03
2018-09-10T02:52:01.063Z,18.06
2018-09-10T02:53:11.156Z,18.02
2018-09-10T02:54:21.485Z,18.06
2018-09-10T02:55:31.575Z,18.05
2018-09-10T02:56:41.655Z,17.96
2018-09-10T02:57:51.565Z,18.06
2018-09-10T02:59:01.633Z,18.03
2018-09-10T03:00:11.698Z,18.03
2018-09-10T03:01:21.778Z,17.95
2018-09-10T03:02:31.869Z,18.01
2018-09-10T03:34:45.552Z,15.53
2018-09-10T03:35:55.640Z,15.52
2018-09-10T03:37:05.694Z,15.51
2018-09-10T03:38:15.523Z,15.53
2018-09-10T03:39:25.580Z,15.38
2018-09-10T03:40:35.444Z,15.56
2018-09-10T03:41:45.538Z,15.59
2018-09-10T03:42:55.345Z,15.67
2018-09-10T03:44:05.146Z,15.8
2018-09-10T03:45:15.218Z,15.93
2018-09-10T03:46:25.272Z,15.99
2018-09-10T03:47:35.442Z,16.13
2018-09-10T03:48:45.254Z,16.18
2018-09-10T03:49:55.360Z,16.3
2018-09-10T03:51:05.385Z,16.4
2018-09-10T03:52:15.201Z,16.4
2018-09-10T03:53:25.289Z,16.37
2018-09-10T03:54:35.377Z,16.54
2018-09-10T03:55:45.466Z,16.66
2018-09-10T03:56:55.552Z,16.74
2018-09-10T03:58:05.682Z,16.84
2018-09-10T03:59:15.753Z,16.87
2018-09-10T04:00:25.565Z,16.88
2018-09-10T04:01:35.647Z,16.99
2018-09-10T04:02:45.720Z,17.06
2018-09-10T04:03:55.621Z,17.09
2018-09-10T04:05:06.044Z,17.09
2018-09-10T04:06:16.119Z,17.13
2018-09-10T04:07:25.952Z,17.22
2018-09-10T04:08:36.040Z,17.38
2018-09-10T04:09:46.109Z,17.31
2018-09-10T04:10:56.184Z,17.35
2018-09-10T04:12:06.287Z,17.39
2018-09-10T04:13:16.358Z,17.47
2018-09-10T04:14:26.442Z,17.46
2018-09-10T04:15:36.524Z,17.47
2018-09-10T04:16:46.590Z,17.46
2018-09-10T04:17:56.667Z,17.45
2018-09-10T04:19:06.759Z,17.52
2018-09-10T04:20:16.833Z,17.58
2018-09-10T04:21:26.636Z,17.54
2018-09-10T04:22:36.690Z,17.52
2018-09-10T04:23:46.769Z,17.62
2018-09-10T04:24:57.090Z,17.63
2018-09-10T04:26:07.540Z,17.73
2018-09-10T04:27:17.889Z,17.65
2018-09-10T04:28:28.202Z,17.69
2018-09-10T04:29:38.264Z,17.66
2018-09-10T04:30:48.061Z,17.73
2018-09-10T04:31:58.142Z,17.83
2018-09-10T04:33:08.366Z,17.79
2018-09-10T04:34:18.455Z,17.79
2018-09-10T04:35:28.014Z,17.94
2018-09-10T04:36:38.099Z,17.95
2018-09-10T04:37:47.920Z,17.9
2018-09-10T04:38:58.066Z,17.99
2018-09-10T04:40:08.145Z,18.1
2018-09-10T04:41:18.230Z,18.21
2018-09-10T04:42:28.732Z,18.26
2018-09-10T04:43:38.804Z,18.44
2018-09-10T04:44:48.876Z,18.56
2018-09-10T04:45:58.702Z,18.82
2018-09-10T04:47:08.779Z,18.97
2018-09-10T04:48:18.876Z,19.17
2018-09-10T04:49:28.953Z,19.31
2018-09-10T04:50:39.048Z,19.27
2018-09-10T04:51:48.857Z,19.07
2018-09-10T04:52:58.948Z,19.05
2018-09-10T04:54:08.770Z,19.13
2018-09-10T04:55:18.596Z,19.28
2018-09-10T04:56:28.683Z,19.27
2018-09-10T04:57:38.762Z,19.19
2018-09-10T04:58:48.841Z,19.19
2018-09-10T04:59:58.411Z,19.23
2018-09-10T05:01:08.495Z,19.4
2018-09-10T05:02:18.636Z,19.52
2018-09-10T05:03:28.449Z,19.55
2018-09-10T05:04:38.964Z,19.4
2018-09-10T05:05:48.773Z,19.45
2018-09-10T05:06:59.084Z,19.45
2018-09-10T05:08:08.919Z,19.46
2018-09-10T05:09:19.004Z,19.46
2018-09-10T05:10:28.556Z,19.64
2018-09-10T05:11:38.134Z,19.67
2018-09-10T05:12:48.198Z,19.71
2018-09-10T05:13:58.066Z,19.74
2018-09-10T05:15:08.157Z,19.83
2018-09-10T05:16:18.267Z,19.83
2018-09-10T05:17:28.355Z,19.98
2018-09-10T05:18:38.436Z,20.05
2018-09-10T05:19:48.557Z,20.04
2018-09-10T05:20:58.639Z,20.1
2018-09-10T05:22:09.146Z,20.16
2018-09-10T05:23:19.335Z,20.08
2018-09-10T05:24:29.425Z,20.2
2018-09-10T05:25:39.510Z,20.38
2018-09-10T05:26:49.592Z,20.42
2018-09-10T05:27:59.722Z,20.54
2018-09-10T05:29:09.942Z,20.64
2018-09-10T05:30:20.023Z,20.6
2018-09-10T05:31:29.852Z,20.61
2018-09-10T05:32:39.717Z,20.64
2018-09-10T05:33:49.804Z,20.71
2018-09-10T05:34:59.889Z,20.72
2018-09-10T05:36:09.973Z,20.79
2018-09-10T05:37:20.050Z,20.96
2018-09-10T05:38:30.138Z,21.12
2018-09-10T05:39:40.211Z,21.11
2018-09-10T05:40:50.301Z,21.12
2018-09-10T05:42:00.825Z,21.16
2018-09-10T05:43:10.965Z,21.21
2018-09-10T05:44:21.048Z,21.3
2018-09-10T05:45:31.133Z,21.38
2018-09-10T05:46:40.939Z,21.33
2018-09-10T05:47:51.019Z,21.3
2018-09-10T05:49:01.162Z,21.34
2018-09-10T05:50:11.302Z,21.34
2018-09-10T05:51:21.129Z,21.43
2018-09-10T05:52:31.221Z,21.55
2018-09-10T05:53:40.770Z,21.61
2018-09-10T05:54:50.845Z,21.61
2018-09-10T05:56:00.938Z,21.58
2018-09-10T05:57:10.858Z,21.61
2018-09-10T05:58:20.666Z,21.58
2018-09-10T05:59:30.480Z,21.59
2018-09-10T06:00:40.356Z,21.52
2018-09-10T06:01:50.459Z,21.61
2018-09-10T06:03:00.880Z,21.64
2018-09-10T06:04:10.675Z,21.62
2018-09-10T06:05:20.757Z,21.66
2018-09-10T06:06:30.887Z,21.71
2018-09-10T06:07:40.950Z,21.71
2018-09-10T06:08:51.015Z,21.71
2018-09-10T06:10:00.862Z,21.7
2018-09-10T06:11:10.931Z,21.62
2018-09-10T06:12:21.002Z,21.64
2018-09-10T06:13:31.105Z,21.61
2018-09-10T06:14:41.424Z,21.59
2018-09-10T06:15:51.517Z,21.59
2018-09-10T06:17:01.593Z,21.61
2018-09-10T06:18:11.408Z,21.62
2018-09-10T06:19:21.232Z,21.67
2018-09-10T06:20:31.050Z,21.64
2018-09-10T06:21:41.133Z,21.62
2018-09-10T06:22:51.206Z,21.68
2018-09-10T06:24:01.272Z,21.76
2018-09-10T06:25:11.369Z,21.74
2018-09-10T06:26:21.535Z,21.8
2018-09-10T06:27:31.633Z,21.83
2018-09-10T06:28:41.710Z,21.92
2018-09-10T06:29:51.507Z,21.93
2018-09-10T06:31:01.585Z,22.07
2018-09-10T06:32:11.679Z,22.05
2018-09-10T06:33:21.752Z,22.16
2018-09-10T06:34:31.810Z,22.12
2018-09-10T06:35:42.035Z,22.23
2018-09-10T06:36:51.852Z,22.2
2018-09-10T06:38:02.022Z,22.29
2018-09-10T06:39:12.101Z,22.3
2018-09-10T06:40:22.167Z,22.3
2018-09-10T06:41:32.249Z,22.45
2018-09-10T06:42:42.067Z,22.44
2018-09-10T06:43:52.153Z,22.49
2018-09-10T06:45:02.255Z,22.6
2018-09-10T06:46:12.335Z,22.6
2018-09-10T06:47:22.413Z,22.66
2018-09-10T06:48:31.712Z,22.67
2018-09-10T06:49:41.525Z,22.76
2018-09-10T06:50:51.597Z,22.79
2018-09-10T06:52:01.665Z,22.78
2018-09-10T06:53:11.748Z,22.79
2018-09-10T06:54:21.839Z,22.88
2018-09-10T06:55:31.984Z,23
2018-09-10T06:56:42.075Z,22.96
2018-09-10T06:57:52.146Z,23
2018-09-10T06:59:02.231Z,23.04
2018-09-10T07:00:11.863Z,23.1
2018-09-10T07:01:21.780Z,23.07
2018-09-10T07:02:31.858Z,23.16
2018-09-10T07:03:41.937Z,23.12
2018-09-10T07:04:52.015Z,23.15
2018-09-10T07:06:01.830Z,23.14
2018-09-10T07:07:11.992Z,23.16
2018-09-10T07:08:22.136Z,23.14
2018-09-10T07:09:32.201Z,23.12
2018-09-10T07:10:41.771Z,23.14
2018-09-10T07:11:51.853Z,23.24
2018-09-10T07:13:02.141Z,23.22
2018-09-10T07:14:12.359Z,23.29
2018-09-10T07:15:22.169Z,23.26
2018-09-10T07:16:31.984Z,23.26
2018-09-10T07:17:42.058Z,23.34
2018-09-10T07:18:52.831Z,23.28
2018-09-10T07:20:03.246Z,23.34
2018-09-10T07:21:13.560Z,23.52
2018-09-10T07:22:23.649Z,23.48
2018-09-10T07:23:33.753Z,23.53
2018-09-10T07:24:43.897Z,23.62
2018-09-10T07:25:53.980Z,23.66
2018-09-10T07:27:04.048Z,23.6
2018-09-10T07:28:13.874Z,23.6
2018-09-10T07:29:24.015Z,23.67
2018-09-10T07:30:33.878Z,23.77
2018-09-10T07:31:44.013Z,23.74
2018-09-10T07:32:54.092Z,23.7
2018-09-10T07:34:04.157Z,23.81
2018-09-10T07:35:14.218Z,23.79
2018-09-10T07:36:23.829Z,23.84
2018-09-10T07:37:33.921Z,23.87
2018-09-10T07:38:43.999Z,23.97
2018-09-10T07:39:54.105Z,24.03
2018-09-10T07:41:04.187Z,24.03
2018-09-10T07:42:14.274Z,24.09
2018-09-10T07:43:24.546Z,24.17
2018-09-10T07:44:34.776Z,24.15
2018-09-10T07:45:44.870Z,24.24
2018-09-10T07:46:54.947Z,24.3
2018-09-10T07:48:04.544Z,24.42
2018-09-10T07:49:14.371Z,24.45
2018-09-10T07:50:24.362Z,24.54
2018-09-10T07:51:34.214Z,24.58
2018-09-10T07:52:44.280Z,24.66
2018-09-10T07:53:54.411Z,24.7
2018-09-10T07:55:04.510Z,24.8
2018-09-10T07:56:14.591Z,24.77
2018-09-10T07:57:24.148Z,24.87
2018-09-10T07:58:34.213Z,24.86
2018-09-10T07:59:44.038Z,24.89
2018-09-10T08:00:54.324Z,24.97
2018-09-10T08:02:04.139Z,25.04
2018-09-10T08:03:14.337Z,25.01
2018-09-10T08:04:24.455Z,25.01
2018-09-10T08:05:34.341Z,25.14
2018-09-10T08:06:44.419Z,25.15
2018-09-10T08:07:54.512Z,25.15
2018-09-10T08:09:04.433Z,25.23
2018-09-10T08:10:14.784Z,25.2
2018-09-10T08:11:25.117Z,25.38
2018-09-10T08:12:35.198Z,25.29
2018-09-10T08:13:45.036Z,25.44
2018-09-10T08:14:55.125Z,25.44
2018-09-10T08:16:05.025Z,25.52
2018-09-10T08:17:14.827Z,25.54
2018-09-10T08:18:24.651Z,25.57
2018-09-10T08:19:34.729Z,25.57
2018-09-10T08:20:44.835Z,25.66
2018-09-10T08:21:54.647Z,25.69
2018-09-10T08:23:04.724Z,25.63
2018-09-10T08:24:29.319Z,25.79
2018-09-10T08:25:39.644Z,25.82
2018-09-10T08:26:49.462Z,25.85
2018-09-10T08:27:59.087Z,25.91
2018-09-10T08:29:09.188Z,25.96
2018-09-10T08:30:34.177Z,25.99
2018-09-10T08:31:44.305Z,26.01
2018-09-10T08:32:54.633Z,26.07
2018-09-10T08:34:04.450Z,26.15
2018-09-10T08:35:14.522Z,26.15
2018-09-10T08:36:24.660Z,26.16
2018-09-10T08:37:34.754Z,26.17
2018-09-10T08:38:44.843Z,26.3
2018-09-10T08:39:54.921Z,26.24
2018-09-10T08:41:05.713Z,26.42
2018-09-10T08:42:15.584Z,26.41
2018-09-10T08:43:25.657Z,26.42
2018-09-10T08:44:35.497Z,26.45
2018-09-10T08:45:45.594Z,26.41
2018-09-10T08:46:55.689Z,26.5
2018-09-10T08:48:05.559Z,26.53
2018-09-10T08:49:15.709Z,26.56
2018-09-10T08:50:25.782Z,26.67
2018-09-10T08:51:35.657Z,26.6
2018-09-10T08:52:45.479Z,26.61
2018-09-10T08:53:55.882Z,26.79
2018-09-10T08:55:07.114Z,26.86
2018-09-10T08:56:19.011Z,26.84
2018-09-10T08:57:29.316Z,26.89
2018-09-10T08:58:39.138Z,26.89
2018-09-10T08:59:49.216Z,26.99
2018-09-10T09:00:59.040Z,26.96
2018-09-10T09:02:09.023Z,27.04
2018-09-10T09:03:18.841Z,26.99
2018-09-10T09:04:28.933Z,26.96
2018-09-10T09:05:38.793Z,27.04
2018-09-10T09:06:48.364Z,27.06
2018-09-10T09:07:58.305Z,27.05
2018-09-10T09:09:08.925Z,27.13
2018-09-10T09:10:19.006Z,27.11
2018-09-10T09:11:29.182Z,27.19
2018-09-10T09:12:39.273Z,27.28
2018-09-10T09:13:49.369Z,27.31
2018-09-10T09:14:59.202Z,27.36
2018-09-10T09:16:09.263Z,27.45
2018-09-10T09:17:19.440Z,27.49
2018-09-10T09:18:29.893Z,27.51
2018-09-10T09:19:39.986Z,27.59
2018-09-10T09:20:50.083Z,27.62
2018-09-10T09:22:00.382Z,27.61
2018-09-10T09:23:10.796Z,27.71
2018-09-10T09:24:20.971Z,27.75
2018-09-10T09:25:31.079Z,27.83
2018-09-10T09:26:41.178Z,27.83
2018-09-10T09:27:51.261Z,27.84
2018-09-10T09:29:01.145Z,27.86
2018-09-10T09:30:10.780Z,27.91
2018-09-10T09:31:20.927Z,27.91
2018-09-10T09:32:30.759Z,27.87
2018-09-10T09:33:40.832Z,28.02
2018-09-10T09:34:50.988Z,27.98
2018-09-10T09:36:01.084Z,28.02
2018-09-10T09:37:11.221Z,28.02
2018-09-10T09:38:21.050Z,28.06
2018-09-10T09:39:31.133Z,28.11
2018-09-10T09:40:41.525Z,28.09
2018-09-10T09:41:51.350Z,28.18
2018-09-10T09:43:01.436Z,28.23
2018-09-10T09:44:11.675Z,28.21
2018-09-10T09:45:21.496Z,28.26
2018-09-10T09:46:31.630Z,28.31
2018-09-10T09:47:41.708Z,28.33
2018-09-10T09:48:51.774Z,28.42
2018-09-10T09:50:01.856Z,28.49
2018-09-10T09:51:12.231Z,28.49
2018-09-10T09:52:22.615Z,28.57
2018-09-10T09:53:32.444Z,28.57
2018-09-10T09:54:42.526Z,28.61
2018-09-10T09:55:52.337Z,28.67
2018-09-10T09:57:02.219Z,28.73
2018-09-10T09:58:12.348Z,28.67
2018-09-10T09:59:21.903Z,28.82
2018-09-10T10:00:31.981Z,28.79
2018-09-10T10:01:42.086Z,28.86
2018-09-10T10:02:51.903Z,28.91
2018-09-10T10:04:02.447Z,28.92
2018-09-10T10:05:12.757Z,28.85
2018-09-10T10:06:22.583Z,28.91
2018-09-10T10:07:32.711Z,29.01
2018-09-10T10:08:42.792Z,28.98
2018-09-10T10:09:52.672Z,29.06
2018-09-10T10:11:02.813Z,29.05
2018-09-10T10:12:12.971Z,29.06
2018-09-10T10:13:23.580Z,29.11
2018-09-10T10:14:33.671Z,29.17
2018-09-10T10:15:43.797Z,29.24
2018-09-10T10:16:53.620Z,29.23
2018-09-10T10:18:03.441Z,29.3
2018-09-10T10:19:13.523Z,29.24
2018-09-10T10:20:23.609Z,29.35
2018-09-10T10:21:33.501Z,29.4
2018-09-10T10:22:43.613Z,29.45
2018-09-10T10:23:53.705Z,29.48
2018-09-10T10:25:03.797Z,29.43
2018-09-10T10:26:13.889Z,29.43
2018-09-10T10:27:24.087Z,29.55
2018-09-10T10:28:34.181Z,29.5
2018-09-10T10:29:44.269Z,29.57
2018-09-10T10:30:54.343Z,29.63
2018-09-10T10:32:04.421Z,29.63
2018-09-10T10:33:14.572Z,29.7
2018-09-10T10:34:24.668Z,29.76
2018-09-10T10:35:34.755Z,29.79
2018-09-10T10:36:44.869Z,29.76
2018-09-10T10:37:54.430Z,29.88
2018-09-10T10:39:04.082Z,29.89
2018-09-10T10:40:14.289Z,29.91
2018-09-10T10:41:24.403Z,29.94
2018-09-10T10:42:34.482Z,30.07
2018-09-10T10:43:44.566Z,30.04
2018-09-10T10:44:54.660Z,30.07
2018-09-10T10:46:04.744Z,29.98
2018-09-10T10:47:14.830Z,30.06
2018-09-10T10:48:24.709Z,30.09
2018-09-10T10:49:34.544Z,30.07
2018-09-10T10:50:44.627Z,30.13
2018-09-10T10:51:54.716Z,30.19
2018-09-10T10:53:04.802Z,30.25
2018-09-10T10:54:14.910Z,30.28
2018-09-10T10:55:24.726Z,30.25
2018-09-10T10:56:34.595Z,30.32
2018-09-10T10:57:44.170Z,30.39
2018-09-10T10:58:53.971Z,30.35
2018-09-10T11:00:04.047Z,30.37
2018-09-10T11:01:13.871Z,30.4
2018-09-10T11:02:23.709Z,30.48
2018-09-10T11:03:33.770Z,30.6
2018-09-10T11:04:43.850Z,30.49
2018-09-10T11:05:53.683Z,30.57
2018-09-10T11:07:03.767Z,30.59
2018-09-10T11:08:13.836Z,30.6
2018-09-10T11:09:23.657Z,30.54
2018-09-10T11:10:33.760Z,30.59
2018-09-10T11:11:43.567Z,30.59
2018-09-10T11:12:53.662Z,30.69
2018-09-10T11:14:03.772Z,30.73
2018-09-10T11:15:13.578Z,30.73
2018-09-10T11:16:23.657Z,30.77
2018-09-10T11:17:33.554Z,30.79
2018-09-10T11:18:43.373Z,30.89
2018-09-10T11:19:53.722Z,30.96
2018-09-10T11:21:03.569Z,31
2018-09-10T11:22:13.460Z,31
2018-09-10T11:23:23.513Z,31.03
2018-09-10T11:24:33.603Z,31.04
2018-09-10T11:25:43.742Z,31.22
2018-09-10T11:26:53.861Z,31.28
2018-09-10T11:28:03.950Z,31.19
2018-09-10T11:29:14.066Z,31.22
2018-09-10T11:30:24.181Z,31.18
2018-09-10T11:31:34.517Z,31.16
2018-09-10T11:32:44.064Z,31.21
2018-09-10T11:33:54.167Z,31.16
2018-09-10T11:35:03.986Z,31.13
2018-09-10T11:36:14.076Z,31.26
2018-09-10T11:37:24.236Z,31.28
2018-09-10T11:38:34.367Z,31.28
2018-09-10T11:39:44.178Z,31.31
2018-09-10T11:40:54.274Z,31.3
2018-09-10T11:42:04.373Z,31.28
2018-09-10T11:43:14.460Z,31.3
2018-09-10T11:44:24.557Z,31.25
2018-09-10T11:45:34.653Z,31.26
2018-09-10T11:46:44.998Z,31.37
2018-09-10T11:47:55.100Z,31.37
2018-09-10T11:49:05.280Z,31.31
2018-09-10T11:50:15.401Z,31.33
2018-09-10T11:51:25.505Z,31.38
2018-09-10T11:52:35.624Z,31.4
2018-09-10T11:53:45.725Z,31.45
2018-09-10T11:54:55.829Z,31.43
2018-09-10T11:56:05.929Z,31.43
2018-09-10T11:57:16.075Z,31.45
2018-09-10T11:58:25.645Z,31.37
2018-09-10T11:59:35.734Z,31.47
2018-09-10T12:00:45.808Z,31.47
2018-09-10T12:01:56.080Z,31.45
2018-09-10T12:03:06.261Z,31.49
2018-09-10T12:04:16.095Z,31.5
2018-09-10T12:05:25.934Z,31.52
2018-09-10T12:06:36.038Z,31.55
2018-09-10T12:07:46.152Z,31.63
2018-09-10T12:08:56.040Z,31.67
2018-09-10T12:10:06.155Z,31.71
2018-09-10T12:11:16.248Z,31.78
2018-09-10T12:12:26.334Z,31.7
2018-09-10T12:13:36.641Z,31.7
2018-09-10T12:14:47.030Z,31.78
2018-09-10T12:15:57.105Z,31.7
2018-09-10T12:17:07.208Z,31.75
2018-09-10T12:18:17.290Z,31.7
2018-09-10T12:19:27.144Z,31.71
2018-09-10T12:20:37.347Z,31.63
2018-09-10T12:21:47.436Z,31.56
2018-09-10T12:22:57.261Z,31.58
2018-09-10T12:24:07.369Z,31.52
2018-09-10T12:25:17.443Z,31.49
2018-09-10T12:26:27.354Z,31.63
2018-09-10T12:27:37.598Z,31.62
2018-09-10T12:28:47.710Z,31.63
2018-09-10T12:29:57.808Z,31.62
2018-09-10T12:31:07.375Z,31.63
2018-09-10T12:32:17.582Z,31.63
2018-09-10T12:33:27.528Z,31.6
2018-09-10T12:34:37.334Z,31.68
2018-09-10T12:35:47.158Z,31.65
2018-09-10T12:36:56.968Z,31.65
2018-09-10T12:38:07.113Z,31.63
2018-09-10T12:39:17.279Z,31.65
2018-09-10T12:40:27.617Z,31.71
2018-09-10T12:41:37.717Z,31.74
2018-09-10T12:42:47.537Z,31.77
2018-09-10T12:43:57.732Z,31.77
2018-09-10T12:45:07.828Z,31.67
2018-09-10T12:46:17.691Z,31.59
2018-09-10T12:47:27.608Z,31.59
2018-09-10T12:48:37.697Z,31.65
2018-09-10T12:49:47.828Z,31.59
2018-09-10T12:50:57.918Z,31.6
2018-09-10T12:52:07.991Z,31.55
2018-09-10T12:53:18.100Z,31.6
2018-09-10T12:54:28.203Z,31.67
2018-09-10T12:55:38.325Z,31.63
2018-09-10T12:56:48.426Z,31.6
2018-09-10T12:57:58.531Z,31.62
2018-09-10T12:59:08.392Z,31.58
2018-09-10T13:00:18.489Z,31.52
2018-09-10T13:01:28.421Z,31.53
2018-09-10T13:02:38.526Z,31.55
2018-09-10T13:03:48.609Z,31.63
2018-09-10T13:04:58.182Z,31.59
2018-09-10T13:06:08.258Z,31.67
2018-09-10T13:07:18.364Z,31.7
2018-09-10T13:08:28.450Z,31.71
2018-09-10T13:09:38.538Z,31.8
2018-09-10T13:10:48.888Z,31.86
2018-09-10T13:11:58.857Z,31.86
2018-09-10T13:13:08.959Z,31.86
2018-09-10T13:14:19.037Z,31.8
2018-09-10T13:15:29.198Z,31.78
2018-09-10T13:16:39.291Z,31.82
2018-09-10T13:17:49.393Z,31.81
2018-09-10T13:18:59.225Z,31.81
2018-09-10T13:20:09.314Z,31.75
2018-09-10T13:21:19.499Z,31.77
2018-09-10T13:22:29.598Z,31.77
2018-09-10T13:23:39.683Z,31.74
2018-09-10T13:24:49.759Z,31.77
2018-09-10T13:25:59.576Z,31.7
2018-09-10T13:27:09.673Z,31.74
2018-09-10T13:28:19.511Z,31.78
2018-09-10T13:29:29.611Z,31.88
2018-09-10T13:30:39.762Z,31.81
2018-09-10T13:31:49.827Z,31.78
2018-09-10T13:32:59.639Z,31.81
2018-09-10T13:34:09.754Z,31.87
2018-09-10T13:35:19.828Z,31.81
2018-09-10T13:36:29.740Z,31.81
2018-09-10T13:37:39.993Z,31.77
2018-09-10T13:38:50.119Z,31.81
2018-09-10T13:40:00.476Z,31.81
2018-09-10T13:41:10.288Z,31.9
2018-09-10T13:42:20.372Z,31.81
2018-09-10T13:43:30.520Z,32
2018-09-10T13:44:40.650Z,32.1
2018-09-10T13:45:50.742Z,32.1
2018-09-10T13:47:00.819Z,32.09
2018-09-10T13:48:10.666Z,32.13
2018-09-10T13:49:20.492Z,32.1
2018-09-10T13:50:30.318Z,32.1
2018-09-10T13:51:40.135Z,32.05
2018-09-10T13:52:50.237Z,31.95
2018-09-10T13:54:00.486Z,31.87
2018-09-10T13:55:10.403Z,31.88
2018-09-10T13:56:20.537Z,31.82
2018-09-10T13:57:30.635Z,31.9
2018-09-10T13:58:40.725Z,31.87
2018-09-10T13:59:51.054Z,31.93
2018-09-10T14:01:01.164Z,31.88
2018-09-10T14:02:11.310Z,31.93
2018-09-10T14:03:21.404Z,31.91
2018-09-10T14:04:31.534Z,31.82
2018-09-10T14:05:41.649Z,31.8
2018-09-10T14:06:51.741Z,31.9
2018-09-10T14:08:01.887Z,31.8
2018-09-10T14:09:12.014Z,31.74
2018-09-10T14:10:22.171Z,31.67
2018-09-10T14:11:32.303Z,31.63
2018-09-10T14:12:42.407Z,31.5
2018-09-10T14:13:52.319Z,31.49
2018-09-10T14:15:02.428Z,31.49
2018-09-10T14:16:12.536Z,31.44
2018-09-10T14:17:22.908Z,31.38
2018-09-10T14:18:34.117Z,31.44
2018-09-10T14:19:44.001Z,31.41
2018-09-10T14:20:54.120Z,31.44
2018-09-10T14:22:03.966Z,31.41
2018-09-10T14:23:14.077Z,31.43
2018-09-10T14:24:23.935Z,31.45
2018-09-10T14:25:34.166Z,31.49
2018-09-10T14:26:43.748Z,31.44
2018-09-10T14:27:53.860Z,31.45
2018-09-10T14:29:03.702Z,31.38
2018-09-10T14:30:13.540Z,31.41
2018-09-10T14:31:23.664Z,31.47
2018-09-10T14:32:33.775Z,31.47
2018-09-10T14:33:43.869Z,31.41
2018-09-10T14:34:54.166Z,31.34
2018-09-10T14:36:04.220Z,31.37
2018-09-10T14:37:15.045Z,31.38
2018-09-10T14:38:25.167Z,31.49
2018-09-10T14:39:35.313Z,31.41
2018-09-10T14:40:45.163Z,31.43
2018-09-10T14:41:55.295Z,31.44
2018-09-10T14:43:05.423Z,31.49
2018-09-10T14:44:15.508Z,31.53
2018-09-10T14:45:25.614Z,31.47
2018-09-10T14:46:35.717Z,31.45
2018-09-10T14:47:45.838Z,31.4
2018-09-10T14:48:56.016Z,31.4
2018-09-10T14:50:06.370Z,31.45
2018-09-10T14:51:15.971Z,31.38
2018-09-10T14:52:25.812Z,31.43
2018-09-10T14:53:35.928Z,31.58
2018-09-10T14:54:46.510Z,31.41
2018-09-10T14:55:56.348Z,31.44
2018-09-10T14:57:06.170Z,31.47
2018-09-10T14:58:16.309Z,31.49
2018-09-10T14:59:25.880Z,31.62
2018-09-10T15:00:36.035Z,31.59
2018-09-10T15:01:46.104Z,31.59
2018-09-10T15:02:55.933Z,31.58
2018-09-10T15:04:06.035Z,31.59
2018-09-10T15:05:16.212Z,31.6
2018-09-10T15:06:26.351Z,31.52
2018-09-10T15:07:36.466Z,31.53
2018-09-10T15:08:46.561Z,31.59
2018-09-10T15:09:56.670Z,31.58
2018-09-10T15:11:06.583Z,31.5
2018-09-10T15:12:17.002Z,31.53
2018-09-10T15:13:27.166Z,31.49
2018-09-10T15:14:37.993Z,31.45
2018-09-10T15:15:48.183Z,31.44
2018-09-10T15:16:58.271Z,31.41
2018-09-10T15:18:08.091Z,31.38
2018-09-10T15:19:18.271Z,31.31
2018-09-10T15:20:28.382Z,31.18
2018-09-10T15:21:38.467Z,31.21
2018-09-10T15:22:48.567Z,31.22
2018-09-10T15:23:58.396Z,31.13
2018-09-10T15:25:08.414Z,31.07
2018-09-10T15:26:18.642Z,30.93
2018-09-10T15:27:28.728Z,30.73
2018-09-10T15:28:38.836Z,30.67
2018-09-10T15:29:48.932Z,30.67
2018-09-10T15:30:59.021Z,30.51
2018-09-10T15:32:09.101Z,30.47
2018-09-10T15:33:19.208Z,30.48
2018-09-10T15:34:29.509Z,30.42
2018-09-10T15:35:39.652Z,30.48
2018-09-10T15:36:49.225Z,30.35